Spirit River, Canada
Current Conditions -  °F | °C
As of 11:31 PM on Tuesday 27 Jan 2015 (Local Time) from CYQU Reporting Station
Haze Haze  
Wind Chill: 18°   Ceiling: 600
Heat Index: 25°   Visibility: 2mi
Dew Point: 23°   Wind: 6mph
Humidity: 93%   Direction: 330°NNW
Pressure: 29.96"   Gusts: NA
Location:  55.78°N, 118.83°W
Report Text: CYQU 280631Z 33005KT 2SM BR OVC006 M04/M05 A2996 RMK SC8 SLP186
Loading
Personal Weather Stations






























Interactive Weather Map New forecast layout! Learn more

10-Day Weather Forecast

Advertisements
Track Severe Weather on mobile